Time;durP1;ratioP1;P1;durP2;ratioP2;P2;SDS_P1;SDS_P2;PMS_P1;PMS_P2;Temp;Humidity;BMP_temperature;BMP_pressure;BME280_temperature;BME280_humidity;BME280_pressure;Samples;Min_cycle;Max_cycle;Signal;HPM_P1;HPM_P2
2021/06/18 06:55:11;;;;;;;22.70;20.40;;;22.70;99.90;;;;;;5138099;27;20835;-72
2021/06/18 06:57:37;;;;;;;24.23;19.05;;;22.60;99.90;;;;;;5129601;28;20027;-77
2021/06/18 07:00:05;;;;;;;20.67;17.65;;;22.50;99.90;;;;;;5129824;28;20034;-70
2021/06/18 07:02:31;;;;;;;22.45;16.25;;;22.70;99.90;;;;;;5129831;28;20023;-68
2021/06/18 07:04:56;;;;;;;19.40;15.25;;;23.20;99.90;;;;;;5129763;28;20084;-70
2021/06/18 07:07:22;;;;;;;20.90;16.75;;;23.40;99.90;;;;;;5128577;28;20399;-71
2021/06/18 07:09:48;;;;;;;16.95;15.25;;;23.50;99.90;;;;;;5129339;28;20035;-70
2021/06/18 07:12:13;;;;;;;18.15;14.95;;;23.60;99.90;;;;;;5128603;28;20026;-70
2021/06/18 07:14:40;;;;;;;17.30;15.52;;;23.80;99.90;;;;;;5129153;28;20031;-70
2021/06/18 07:17:06;;;;;;;22.05;15.93;;;23.90;99.90;;;;;;5111195;28;20026;-70
2021/06/18 07:19:32;;;;;;;19.35;17.38;;;24.00;99.90;;;;;;5129173;28;20110;-71
2021/06/18 07:21:58;;;;;;;20.75;16.13;;;24.10;99.90;;;;;;5128995;28;20028;-69
2021/06/18 07:24:24;;;;;;;18.35;16.60;;;24.10;99.90;;;;;;5129119;28;20035;-71
2021/06/18 07:26:50;;;;;;;17.85;15.45;;;24.20;99.90;;;;;;5129239;28;20016;-68
2021/06/18 07:29:15;;;;;;;20.45;15.90;;;24.40;99.90;;;;;;5129546;28;20353;-68
2021/06/18 07:31:42;;;;;;;19.50;16.60;;;24.50;99.90;;;;;;5109078;28;20019;-68
2021/06/18 07:34:09;;;;;;;15.93;13.95;;;24.60;99.90;;;;;;5127517;28;20392;-71
2021/06/18 07:36:34;;;;;;;17.60;13.48;;;24.70;99.90;;;;;;5127545;28;20031;-71
2021/06/18 07:39:00;;;;;;;13.45;11.73;;;24.70;99.90;;;;;;5128060;28;20069;-70
2021/06/18 07:41:26;;;;;;;14.27;10.73;;;24.80;99.90;;;;;;5127876;28;20019;-71
2021/06/18 07:43:52;;;;;;;11.82;10.02;;;24.90;99.90;;;;;;5128594;28;20023;-71
2021/06/18 07:46:17;;;;;;;11.07;9.55;;;24.90;99.90;;;;;;5130008;28;20027;-70
2021/06/18 07:48:43;;;;;;;13.85;9.27;;;25.00;99.90;;;;;;5127606;28;20493;-70
2021/06/18 07:51:09;;;;;;;13.05;9.20;;;25.10;99.90;;;;;;5128861;28;20031;-71
2021/06/18 07:53:35;;;;;;;9.50;8.00;;;25.20;99.90;;;;;;5128394;28;20144;-70
2021/06/18 07:56:01;;;;;;;12.18;8.07;;;25.20;99.90;;;;;;5128796;28;20102;-69
2021/06/18 07:58:27;;;;;;;8.75;7.47;;;25.30;99.90;;;;;;5128653;28;20114;-71
2021/06/18 08:00:52;;;;;;;11.05;7.45;;;25.30;99.90;;;;;;5110263;28;20371;-72
2021/06/18 08:03:18;;;;;;;9.38;7.22;;;25.40;99.90;;;;;;5128866;28;20059;-71
2021/06/18 08:05:44;;;;;;;9.77;7.53;;;25.40;99.90;;;;;;5119434;28;20031;-71
2021/06/18 08:08:09;;;;;;;10.10;6.82;;;25.50;99.90;;;;;;5114907;28;20024;-71
2021/06/18 08:10:35;;;;;;;7.35;6.50;;;25.60;99.90;;;;;;5114542;28;20047;-69
2021/06/18 08:13:01;;;;;;;8.55;6.53;;;25.60;99.90;;;;;;5114728;28;20035;-70
2021/06/18 08:15:26;;;;;;;8.98;7.05;;;25.70;99.90;;;;;;5114219;28;20110;-71
2021/06/18 08:17:52;;;;;;;8.20;6.68;;;25.70;99.90;;;;;;5114172;28;20019;-71
2021/06/18 08:20:20;;;;;;;7.53;6.72;;;25.70;99.90;;;;;;5113871;28;20028;-71
2021/06/18 08:22:47;;;;;;;8.35;6.47;;;25.80;99.90;;;;;;5115040;28;20023;-71
2021/06/18 08:25:13;;;;;;;7.43;6.20;;;25.80;99.90;;;;;;5114396;28;20035;-71
2021/06/18 08:27:39;;;;;;;7.85;6.97;;;25.90;99.90;;;;;;5114220;28;20030;-70
2021/06/18 08:30:06;;;;;;;8.52;6.38;;;25.90;99.90;;;;;;5114444;28;20035;-71
2021/06/18 08:32:32;;;;;;;8.95;6.88;;;25.90;99.90;;;;;;5113986;28;20375;-70
2021/06/18 08:34:58;;;;;;;9.27;6.40;;;26.00;99.90;;;;;;5113879;28;20039;-70
2021/06/18 08:37:23;;;;;;;7.43;6.65;;;26.00;99.90;;;;;;5113836;28;20020;-69
2021/06/18 08:39:49;;;;;;;7.55;6.55;;;26.10;99.90;;;;;;5114200;28;20035;-68
2021/06/18 08:42:15;;;;;;;6.68;6.07;;;26.20;99.90;;;;;;5114474;28;20027;-69
2021/06/18 08:44:45;;;;;;;7.43;6.18;;;26.20;99.90;;;;;;5113648;28;20090;-70
2021/06/18 08:47:11;;;;;;;6.53;5.80;;;26.20;99.90;;;;;;5113350;28;20069;-71
2021/06/18 08:49:37;;;;;;;7.20;5.82;;;26.20;99.90;;;;;;5113363;28;20032;-71
2021/06/18 08:52:03;;;;;;;8.95;6.00;;;26.20;99.90;;;;;;5113702;28;20031;-70
2021/06/18 08:54:42;;;;;;;6.82;6.05;;;26.20;99.90;;;;;;5113572;28;20042;-72
2021/06/18 08:57:25;;;;;;;9.57;6.38;;;26.30;99.90;;;;;;5113117;28;20024;-69
2021/06/18 08:59:51;;;;;;;6.93;6.05;;;26.20;99.90;;;;;;5113896;28;20031;-69
2021/06/18 09:02:17;;;;;;;8.10;5.93;;;26.20;99.90;;;;;;5114019;28;20027;-71
2021/06/18 09:05:10;;;;;;;7.40;6.00;;;26.10;99.90;;;;;;5113560;28;20123;-75
2021/06/18 09:08:00;;;;;;;6.47;5.68;;;26.20;99.90;;;;;;5113603;28;20027;-74
2021/06/18 09:10:42;;;;;;;6.60;5.45;;;26.20;99.90;;;;;;5112584;28;20081;-68
2021/06/18 09:13:20;;;;;;;6.35;5.75;;;26.20;99.90;;;;;;5113763;28;20027;-72
2021/06/18 09:15:51;;;;;;;7.40;5.45;;;26.30;99.90;;;;;;5113602;28;20066;-69
2021/06/18 09:18:38;;;;;;;5.68;5.07;;;26.30;99.90;;;;;;5112902;28;20103;-73
2021/06/18 09:21:06;;;;;;;8.90;5.45;;;26.40;99.90;;;;;;5113424;28;20027;-72
2021/06/18 09:23:33;;;;;;;6.13;5.53;;;26.30;99.90;;;;;;5113032;28;20596;-71
2021/06/18 09:26:19;;;;;;;5.72;5.22;;;26.40;99.90;;;;;;5113310;28;20035;-71
2021/06/18 09:29:18;;;;;;;5.60;5.00;;;26.40;99.90;;;;;;5113595;28;20020;-72
2021/06/18 09:32:08;;;;;;;6.75;5.35;;;26.40;99.90;;;;;;5113354;28;20046;-69
2021/06/18 09:35:01;;;;;;;6.97;5.70;;;26.50;99.90;;;;;;5112050;28;20024;-70
2021/06/18 09:37:29;;;;;;;8.30;5.13;;;26.50;99.90;;;;;;5112854;28;20035;-72
2021/06/18 09:40:10;;;;;;;6.15;5.43;;;26.50;99.90;;;;;;5113003;28;20012;-75
2021/06/18 09:42:48;;;;;;;5.65;5.15;;;26.50;99.90;;;;;;5112580;28;20027;-74
2021/06/18 09:45:17;;;;;;;5.47;4.97;;;26.50;99.90;;;;;;5113227;28;20028;-76
2021/06/18 09:47:43;;;;;;;5.55;4.85;;;26.50;99.90;;;;;;5112329;28;20024;-72
2021/06/18 09:50:14;;;;;;;6.75;5.00;;;26.60;99.90;;;;;;5112885;28;20436;-75
2021/06/18 09:52:44;;;;;;;5.35;4.70;;;26.50;99.90;;;;;;5112284;28;20027;-76
2021/06/18 09:55:18;;;;;;;6.20;5.15;;;26.60;99.90;;;;;;5112085;28;20067;-70
2021/06/18 09:57:44;;;;;;;6.47;4.90;;;26.60;99.90;;;;;;5112621;28;20463;-76
2021/06/18 10:00:17;;;;;;;6.55;4.88;;;26.50;99.90;;;;;;5112677;28;20030;-70
2021/06/18 10:02:48;;;;;;;5.65;4.70;;;26.50;99.90;;;;;;5112424;28;20024;-72
2021/06/18 10:05:16;;;;;;;5.97;5.07;;;26.50;99.90;;;;;;5112658;28;20032;-72
2021/06/18 10:07:44;;;;;;;5.00;4.60;;;26.50;99.90;;;;;;5111659;28;20466;-70
2021/06/18 10:10:15;;;;;;;5.70;4.65;;;26.50;99.90;;;;;;5111153;28;20084;-71
2021/06/18 10:12:42;;;;;;;5.22;4.72;;;26.40;99.90;;;;;;5111657;28;20039;-70
2021/06/18 10:15:11;;;;;;;5.20;4.70;;;26.40;99.90;;;;;;5112464;28;20113;-72
2021/06/18 10:17:39;;;;;;;5.22;4.30;;;26.40;99.90;;;;;;5112065;28;20015;-72
2021/06/18 10:20:10;;;;;;;5.28;4.82;;;26.40;99.90;;;;;;5111124;28;20038;-72
2021/06/18 10:22:45;;;;;;;5.53;4.60;;;26.40;99.90;;;;;;5112049;28;20033;-72
2021/06/18 10:25:14;;;;;;;5.13;4.63;;;26.40;99.90;;;;;;5112186;28;20043;-72
2021/06/18 10:27:47;;;;;;;4.93;4.30;;;26.40;99.90;;;;;;5110508;28;20030;-68
2021/06/18 10:30:35;;;;;;;5.05;4.55;;;26.40;99.90;;;;;;5107753;28;20058;-73
2021/06/18 10:33:22;;;;;;;5.32;4.40;;;26.40;99.90;;;;;;5112050;28;20027;-72
2021/06/18 10:35:52;;;;;;;5.07;4.57;;;26.40;99.90;;;;;;5111398;28;20023;-70
2021/06/18 10:38:39;;;;;;;4.93;4.32;;;26.40;99.90;;;;;;5111406;28;20032;-73
2021/06/18 10:41:17;;;;;;;4.68;4.28;;;26.40;99.90;;;;;;5111669;28;20051;-71
2021/06/18 10:43:49;;;;;;;5.78;4.70;;;26.40;99.90;;;;;;5111106;28;20074;-70
2021/06/18 10:46:29;;;;;;;4.88;4.40;;;26.40;99.90;;;;;;5112099;28;20035;-70
2021/06/18 10:49:12;;;;;;;5.05;4.55;;;26.50;99.90;;;;;;5111833;28;20066;-70
2021/06/18 10:51:42;;;;;;;4.38;4.00;;;26.50;99.90;;;;;;5111709;28;20028;-70
2021/06/18 10:54:33;;;;;;;6.22;4.40;;;26.50;99.90;;;;;;5111227;28;20032;-70
2021/06/18 10:57:00;;;;;;;5.05;4.55;;;26.50;99.90;;;;;;5111545;28;20115;-70
2021/06/18 10:59:38;;;;;;;5.03;4.50;;;26.50;99.90;;;;;;5111560;28;20030;-70
2021/06/18 11:02:30;;;;;;;4.70;4.30;;;26.50;99.90;;;;;;5111877;28;20020;-71
2021/06/18 11:05:06;;;;;;;6.43;4.70;;;26.50;99.90;;;;;;5111403;28;20086;-69
2021/06/18 11:07:37;;;;;;;5.93;4.80;;;26.50;99.90;;;;;;5110868;28;20028;-73
2021/06/18 11:10:18;;;;;;;4.70;4.20;;;26.50;99.90;;;;;;5111489;28;20050;-72
2021/06/18 11:12:47;;;;;;;4.85;4.40;;;26.50;99.90;;;;;;5111702;28;20110;-73
2021/06/18 11:15:16;;;;;;;4.97;4.45;;;26.60;99.90;;;;;;5110846;28;20022;-71
2021/06/18 11:17:44;;;;;;;4.63;4.22;;;26.60;99.90;;;;;;5097688;28;20036;-70
2021/06/18 11:20:17;;;;;;;4.50;4.10;;;26.60;99.90;;;;;;5091202;28;20020;-73
2021/06/18 11:22:48;;;;;;;4.65;4.25;;;26.60;99.90;;;;;;5091153;28;20039;-71
2021/06/18 11:25:32;;;;;;;4.68;4.28;;;26.60;99.90;;;;;;5095828;28;20075;-73
2021/06/18 11:28:27;;;;;;;5.05;4.28;;;26.70;99.90;;;;;;5102157;28;20038;-73
2021/06/18 11:30:58;;;;;;;4.68;4.28;;;26.70;99.90;;;;;;5110434;28;20020;-68
2021/06/18 11:33:36;;;;;;;4.20;3.88;;;26.70;99.90;;;;;;5110461;28;20080;-69
2021/06/18 11:36:03;;;;;;;4.72;4.30;;;26.70;99.90;;;;;;5111513;28;20024;-68
2021/06/18 11:38:29;;;;;;;4.70;4.30;;;26.70;99.90;;;;;;5111150;28;20024;-68
2021/06/18 11:40:57;;;;;;;4.57;4.22;;;26.70;99.90;;;;;;5113531;28;20032;-70
2021/06/18 11:43:30;;;;;;;5.03;4.53;;;26.80;99.90;;;;;;5115035;28;20111;-70
2021/06/18 11:45:58;;;;;;;4.63;4.20;;;26.70;99.90;;;;;;5115465;28;20023;-70
2021/06/18 11:48:23;;;;;;;4.85;4.43;;;26.80;99.90;;;;;;5114998;28;20463;-70
2021/06/18 11:50:50;;;;;;;6.00;4.00;;;26.80;99.90;;;;;;5115057;28;20077;-70
2021/06/18 11:53:17;;;;;;;4.63;4.22;;;26.80;99.90;;;;;;5115448;28;20402;-71
2021/06/18 11:55:44;;;;;;;4.40;4.00;;;26.80;99.90;;;;;;5114174;28;20095;-70
2021/06/18 11:58:32;;;;;;;4.60;4.10;;;26.80;99.90;;;;;;5114446;28;20038;-70
2021/06/18 12:00:58;;;;;;;4.53;4.13;;;26.80;99.90;;;;;;5114959;28;20077;-70
2021/06/18 12:03:31;;;;;;;4.70;4.28;;;26.80;99.90;;;;;;5114514;28;20040;-71
2021/06/18 12:05:57;;;;;;;4.82;4.43;;;26.80;99.90;;;;;;5114756;28;20027;-71
2021/06/18 12:08:23;;;;;;;4.38;4.00;;;26.90;99.90;;;;;;5113655;28;20028;-72
2021/06/18 12:10:49;;;;;;;4.50;4.10;;;26.90;99.90;;;;;;5113393;28;20104;-72
2021/06/18 12:13:15;;;;;;;4.57;4.18;;;26.90;99.90;;;;;;5114311;28;20084;-72
2021/06/18 12:15:42;;;;;;;4.03;3.72;;;26.90;99.90;;;;;;5113864;28;20057;-73
2021/06/18 12:18:09;;;;;;;4.68;4.22;;;27.00;99.90;;;;;;5113607;28;20064;-71
2021/06/18 12:20:40;;;;;;;6.07;4.07;;;27.00;99.90;;;;;;5114279;28;20023;-69
2021/06/18 12:23:16;;;;;;;4.32;3.90;;;27.10;99.90;;;;;;5114144;28;20107;-71
2021/06/18 12:25:42;;;;;;;4.68;3.60;;;27.20;99.90;;;;;;5113740;28;20027;-70
2021/06/18 12:28:09;;;;;;;3.90;3.60;;;27.20;99.90;;;;;;5113516;28;20506;-70
2021/06/18 12:30:37;;;;;;;5.15;3.25;;;27.30;99.90;;;;;;5113821;28;20040;-70
2021/06/18 12:33:05;;;;;;;3.20;2.90;;;27.30;99.90;;;;;;5113280;28;20436;-69
2021/06/18 12:35:43;;;;;;;4.43;2.92;;;27.30;99.90;;;;;;5114097;28;20023;-71
2021/06/18 12:38:12;;;;;;;4.13;2.90;;;27.40;99.90;;;;;;5113723;28;20035;-71
2021/06/18 12:40:40;;;;;;;3.55;2.78;;;27.40;99.90;;;;;;5113539;28;20031;-70
2021/06/18 12:43:11;;;;;;;2.90;2.70;;;27.50;99.90;;;;;;5114030;28;20368;-71
2021/06/18 12:45:46;;;;;;;4.38;2.97;;;27.50;99.90;;;;;;5113178;28;20176;-70
2021/06/18 12:48:19;;;;;;;3.25;2.95;;;27.50;99.90;;;;;;5113926;28;20115;-71
2021/06/18 12:50:53;;;;;;;3.20;2.72;;;27.50;99.90;;;;;;5114095;28;20044;-70
2021/06/18 12:53:28;;;;;;;3.88;2.97;;;27.50;99.90;;;;;;5113335;28;20555;-71
2021/06/18 12:55:54;;;;;;;5.45;3.17;;;27.60;99.90;;;;;;5112698;28;20020;-71
2021/06/18 12:58:24;;;;;;;2.92;2.25;;;27.60;99.90;;;;;;5113301;28;20076;-69
2021/06/18 13:01:04;;;;;;;3.42;2.80;;;27.70;99.90;;;;;;5111928;28;20019;-70
2021/06/18 13:03:49;;;;;;;2.65;2.38;;;27.70;99.90;;;;;;5113224;28;20031;-69
2021/06/18 13:06:15;;;;;;;2.95;2.75;;;27.70;99.90;;;;;;5093475;28;20036;-70
2021/06/18 13:08:52;;;;;;;2.97;2.38;;;27.70;99.90;;;;;;5113095;28;20213;-71
2021/06/18 13:11:26;;;;;;;2.80;2.10;;;27.80;99.90;;;;;;5113605;28;20036;-70
2021/06/18 13:14:07;;;;;;;2.70;2.50;;;27.80;99.90;;;;;;5113232;28;20056;-70
2021/06/18 13:16:33;;;;;;;2.60;2.22;;;27.80;99.90;;;;;;5112188;28;20111;-70
2021/06/18 13:19:00;;;;;;;2.72;2.50;;;27.80;99.90;;;;;;5112612;28;20118;-70
2021/06/18 13:21:46;;;;;;;2.65;2.45;;;27.80;99.90;;;;;;5112814;28;20023;-70
2021/06/18 13:24:12;;;;;;;2.60;2.40;;;27.90;99.90;;;;;;5113164;28;20059;-71
2021/06/18 13:26:38;;;;;;;3.38;2.75;;;27.80;99.90;;;;;;5112873;28;20023;-72
2021/06/18 13:29:21;;;;;;;2.63;2.42;;;27.80;99.90;;;;;;5112965;28;20023;-71
2021/06/18 13:31:52;;;;;;;3.03;2.50;;;27.90;99.90;;;;;;5113624;28;20456;-72
2021/06/18 13:34:19;;;;;;;2.47;2.22;;;27.90;99.90;;;;;;5113231;28;20069;-72
2021/06/18 13:36:46;;;;;;;3.45;2.63;;;27.90;99.90;;;;;;5113022;28;20056;-72
2021/06/18 13:39:21;;;;;;;2.63;2.10;;;27.90;99.90;;;;;;5112497;28;20501;-72
2021/06/18 13:41:47;;;;;;;2.40;2.30;;;27.90;99.90;;;;;;5112707;28;20036;-72
2021/06/18 13:44:12;;;;;;;2.78;2.58;;;27.90;99.90;;;;;;5112288;28;20035;-70
2021/06/18 13:46:40;;;;;;;3.03;2.50;;;28.00;99.90;;;;;;5112270;28;20107;-70
2021/06/18 13:49:06;;;;;;;2.60;2.40;;;28.00;99.90;;;;;;5112107;28;20024;-70
2021/06/18 13:51:33;;;;;;;2.55;2.30;;;27.90;99.90;;;;;;5112403;28;20019;-71
2021/06/18 13:54:00;;;;;;;2.53;2.30;;;28.00;99.90;;;;;;5112703;28;20091;-71
2021/06/18 13:56:27;;;;;;;2.50;2.30;;;28.00;99.90;;;;;;5112118;28;20072;-71
2021/06/18 13:58:52;;;;;;;4.78;2.45;;;28.00;99.90;;;;;;5094365;28;20027;-69
2021/06/18 14:01:18;;;;;;;2.63;2.38;;;28.00;99.90;;;;;;5112144;28;20129;-70
2021/06/18 14:03:44;;;;;;;3.40;2.70;;;28.00;99.90;;;;;;5111951;28;20401;-71
2021/06/18 14:06:10;;;;;;;2.50;2.30;;;28.10;99.90;;;;;;5112489;28;20032;-70
2021/06/18 14:08:36;;;;;;;2.55;2.35;;;28.10;99.90;;;;;;5112359;28;20555;-70
2021/06/18 14:11:03;;;;;;;2.28;2.00;;;28.10;99.90;;;;;;5112419;28;20092;-71
2021/06/18 14:13:28;;;;;;;2.63;2.17;;;28.10;99.90;;;;;;5111955;28;20028;-70
2021/06/18 14:15:54;;;;;;;2.85;2.50;;;28.10;99.90;;;;;;5111685;28;20023;-70
2021/06/18 14:18:23;;;;;;;2.50;2.30;;;28.10;99.90;;;;;;5111341;28;20027;-71
2021/06/18 14:20:51;;;;;;;2.85;2.08;;;28.20;99.90;;;;;;5107223;28;20423;-71
2021/06/18 14:23:18;;;;;;;2.83;2.20;;;28.20;99.90;;;;;;5112377;28;20388;-76
2021/06/18 14:25:48;;;;;;;2.35;2.15;;;28.20;99.90;;;;;;5112477;28;20039;-73
2021/06/18 14:28:13;;;;;;;3.47;2.30;;;28.20;99.90;;;;;;5112229;28;20051;-74
2021/06/18 14:30:39;;;;;;;3.47;2.60;;;28.20;99.90;;;;;;5111279;28;20070;-73
2021/06/18 14:33:08;;;;;;;3.20;2.58;;;28.20;99.90;;;;;;5111479;28;20024;-73
2021/06/18 14:35:34;;;;;;;3.28;2.50;;;28.20;99.90;;;;;;5111441;28;20039;-74
2021/06/18 14:38:00;;;;;;;3.35;2.50;;;28.20;99.90;;;;;;5111608;28;20016;-74
2021/06/18 14:40:26;;;;;;;2.55;2.35;;;28.20;99.90;;;;;;5111843;28;20026;-74
2021/06/18 14:42:52;;;;;;;2.67;2.42;;;28.10;99.90;;;;;;5112012;28;20103;-73
2021/06/18 14:45:17;;;;;;;2.97;2.67;;;28.10;99.90;;;;;;5111898;28;20100;-72
2021/06/18 14:47:43;;;;;;;3.50;2.63;;;28.10;99.90;;;;;;5110381;28;20031;-72
2021/06/18 14:50:09;;;;;;;3.20;2.47;;;28.10;99.90;;;;;;5111936;28;20081;-73
2021/06/18 14:52:35;;;;;;;2.88;2.60;;;28.20;99.90;;;;;;5111435;28;20479;-75
2021/06/18 14:55:02;;;;;;;2.90;2.25;;;28.20;99.90;;;;;;5111433;28;20043;-73
2021/06/18 14:57:28;;;;;;;2.63;2.40;;;28.10;99.90;;;;;;5111695;28;20019;-71
2021/06/18 14:59:53;;;;;;;4.30;2.50;;;28.20;99.90;;;;;;5110916;28;20026;-72
2021/06/18 15:02:19;;;;;;;4.60;2.65;;;28.20;99.90;;;;;;5092670;28;20028;-72
2021/06/18 15:04:44;;;;;;;4.60;2.42;;;28.10;99.90;;;;;;5111179;28;20398;-71
2021/06/18 15:07:10;;;;;;;4.38;2.28;;;28.10;99.90;;;;;;5111767;28;20016;-73
2021/06/18 15:09:36;;;;;;;3.97;2.20;;;28.10;99.90;;;;;;5111589;28;20119;-73
2021/06/18 15:12:02;;;;;;;3.80;2.50;;;28.20;99.90;;;;;;5110980;28;20085;-75
2021/06/18 15:14:27;;;;;;;3.90;2.22;;;28.20;99.90;;;;;;5111398;28;20049;-73
2021/06/18 15:16:54;;;;;;;4.07;2.53;;;28.30;99.90;;;;;;5115533;28;20024;-71
2021/06/18 15:19:19;;;;;;;4.40;2.03;;;28.30;99.90;;;;;;5114598;28;20019;-72
2021/06/18 15:21:45;;;;;;;3.30;2.50;;;28.30;99.90;;;;;;5115911;28;20020;-73
2021/06/18 15:24:11;;;;;;;3.88;2.08;;;28.30;99.90;;;;;;5115112;28;20395;-73
2021/06/18 15:26:37;;;;;;;3.63;2.25;;;28.30;99.90;;;;;;5115361;28;20046;-75
2021/06/18 15:29:03;;;;;;;2.80;2.03;;;28.20;99.90;;;;;;5114569;28;20034;-73
2021/06/18 15:31:28;;;;;;;2.80;1.92;;;28.20;99.90;;;;;;5115579;28;20020;-70
2021/06/18 15:33:54;;;;;;;3.15;1.90;;;28.20;99.90;;;;;;5113582;28;20023;-73
2021/06/18 15:36:20;;;;;;;4.75;2.50;;;28.20;99.90;;;;;;5112575;28;20153;-68
2021/06/18 15:38:46;;;;;;;6.10;2.42;;;28.20;99.90;;;;;;5114456;28;20024;-71
2021/06/18 15:41:12;;;;;;;4.95;2.35;;;28.20;99.90;;;;;;5114327;28;20035;-69
2021/06/18 15:43:38;;;;;;;4.05;2.08;;;28.20;99.90;;;;;;5113316;28;20041;-68
2021/06/18 15:46:05;;;;;;;3.38;2.15;;;28.20;99.90;;;;;;5113847;28;20110;-70
2021/06/18 15:48:32;;;;;;;2.70;2.20;;;28.20;99.90;;;;;;5113757;28;20011;-71
2021/06/18 15:50:59;;;;;;;3.60;1.90;;;28.20;99.90;;;;;;5114527;28;20031;-69
2021/06/18 15:53:25;;;;;;;3.33;2.10;;;28.10;99.90;;;;;;5114841;28;20036;-68
2021/06/18 15:55:50;;;;;;;3.92;1.90;;;28.10;99.90;;;;;;5115097;28;20026;-70
2021/06/18 15:58:16;;;;;;;4.45;2.13;;;28.10;99.90;;;;;;5115085;28;20031;-69
2021/06/18 16:00:42;;;;;;;4.68;2.15;;;28.20;99.90;;;;;;5114646;28;20088;-69
2021/06/18 16:03:07;;;;;;;4.20;1.92;;;28.10;99.90;;;;;;5113619;28;20039;-68
2021/06/18 16:05:33;;;;;;;4.95;1.88;;;28.10;99.90;;;;;;5114611;28;20077;-71
2021/06/18 16:07:59;;;;;;;4.85;2.08;;;28.10;99.90;;;;;;5114621;28;20032;-70
2021/06/18 16:10:25;;;;;;;6.47;1.60;;;28.10;99.90;;;;;;5114603;28;20026;-70
2021/06/18 16:12:50;;;;;;;5.80;1.52;;;28.20;99.90;;;;;;5114835;28;20020;-71
2021/06/18 16:15:16;;;;;;;5.10;1.75;;;28.20;99.90;;;;;;5096659;28;20022;-70
2021/06/18 16:17:42;;;;;;;7.18;1.70;;;28.20;99.90;;;;;;5114455;28;20041;-69
2021/06/18 16:20:08;;;;;;;4.13;1.30;;;28.20;99.90;;;;;;5114654;28;20353;-70
2021/06/18 16:22:34;;;;;;;3.90;1.50;;;28.10;99.90;;;;;;5114400;28;20028;-69
2021/06/18 16:25:00;;;;;;;2.92;1.13;;;28.10;99.90;;;;;;5096077;28;20038;-68
2021/06/18 16:27:27;;;;;;;5.03;1.10;;;28.10;99.90;;;;;;5113793;28;20391;-68
2021/06/18 16:29:53;;;;;;;3.00;0.85;;;28.10;99.90;;;;;;5114500;28;20035;-69
2021/06/18 16:32:19;;;;;;;4.07;1.10;;;28.10;99.90;;;;;;5113886;28;20027;-69
2021/06/18 16:34:45;;;;;;;4.78;0.95;;;28.10;99.90;;;;;;5114038;28;20031;-70
2021/06/18 16:37:10;;;;;;;3.55;1.35;;;28.00;99.90;;;;;;5114352;28;20023;-69
2021/06/18 16:39:36;;;;;;;2.28;1.02;;;28.10;99.90;;;;;;5114005;28;20030;-71
2021/06/18 16:42:02;;;;;;;2.53;1.10;;;28.00;99.90;;;;;;5114256;28;20024;-68
2021/06/18 16:44:28;;;;;;;1.95;1.00;;;28.00;99.90;;;;;;5113678;28;20028;-70
2021/06/18 16:46:53;;;;;;;2.95;1.10;;;28.00;99.90;;;;;;5114090;28;20020;-74
2021/06/18 16:49:19;;;;;;;2.30;1.02;;;28.00;99.90;;;;;;5113818;28;20028;-70
2021/06/18 16:51:45;;;;;;;2.35;1.10;;;28.00;99.90;;;;;;5113843;28;20100;-71
2021/06/18 16:54:10;;;;;;;2.72;1.05;;;28.00;99.90;;;;;;5112555;28;20453;-73
2021/06/18 16:56:36;;;;;;;1.83;1.05;;;27.90;99.90;;;;;;5113183;28;20023;-66
2021/06/18 16:59:02;;;;;;;4.40;1.00;;;27.90;99.90;;;;;;5112884;28;20399;-67
2021/06/18 17:01:28;;;;;;;5.88;1.20;;;27.90;99.90;;;;;;5113047;28;20032;-65
2021/06/18 17:03:53;;;;;;;3.25;1.08;;;27.90;99.90;;;;;;5113096;28;20031;-66
2021/06/18 17:06:19;;;;;;;4.30;1.13;;;27.80;99.90;;;;;;5094483;28;20069;-65
2021/06/18 17:08:46;;;;;;;2.58;1.27;;;27.80;99.90;;;;;;5113895;28;20024;-65
2021/06/18 17:11:15;;;;;;;2.00;1.23;;;27.80;99.90;;;;;;5113644;28;20042;-66
2021/06/18 17:13:59;;;;;;;3.97;1.30;;;27.70;99.90;;;;;;5113364;28;20467;-66
